Dallas, TX

3:25 AM CST on December 27, 2014 (GMT -0600)
Dallas Love | Change Station
CLOSE
Current Station
Airport
Location: Dallas Love,
Elevation: 486 ft
Nearby Weather Stations

Elev 486 ft 32.85 °N, 96.86 °W | Updated 10 minutes ago

Light Rain
Light Rain Mist
48 °F
Feels Like 48 °F
N
20
Wind Variable Wind from NNW
Gusts 26 mph

Today
High -- | Low -- °F
--% Chance of Precip.
Yesterday
High -- | Low -- °F
Precip. -- in
7:28 AM 5:28 PM
Waxing Crescent, 34% visible
Pressure 30.03 in
Visibility 3.0 miles
Clouds Overcast 600 ft
Dew Point 46 °F
Humidity 93%
Rainfall 0.11 in
Snow Depth Not available.
UV 0 out of 12
Pollen 10.50 out of 12
Air Quality Not available.
Flu Activity Not available.
SPECI KDAL 270915Z 34017G23KT 3SM -RA BR OVC006 09/08 A3003 RMK AO2 P0000 T00890078

More Conditions Fewer Conditions

Pressure 30.03 in
Visibility 3.0 miles
Clouds Overcast 600 ft
Dew Point 46 °F
Humidity 93%
Rainfall 0.11 in
Snow Depth Not available.
UV 0 out of 12
Pollen 10.50 out of 12
Air Quality Not available.
Flu Activity Not available.
SPECI KDAL 270915Z 34017G23KT 3SM -RA BR OVC006 09/08 A3003 RMK AO2 P0000 T00890078

More Conditions Fewer Conditions

Nowcast | as of 3:05 am CST on December 27, 2014

A cold front will move from a Bonham...Dallas...to Goldthwaite line and reach a line from Emory to Temple by 5 am. Scattered showers will continue near and just ahead of the front while patchy drizzle and fog will prevail out ahead of the front through the pre-dawn hours. A few locations may see brief dense fog that will reduce the visibility below a half mile. Total rainfall amounts will average less than one tenth of an inch for areas that do see rain.

×

10-Day Weather Forecast

Almanac

Astronomy

Dec. 27, 2014 Rise Set
Actual Time
Civil Twilight
Nautical Twilight
Astronomical Twilight
Moon
Length of Visible Light
Length of Day
Tomorrow will be .
, % of the Moon is Illuminated

Today's Extremes

State Highs State Lows

Community

WunderPhotos

Upload Photos

1,780,869 photos uploaded!

WunderBlogs® & News

Nearby

Air Quality

  Air Quality AQ Index Pollutant
Not available.

Snow Depth

Station Depth Elevation

Earthquake Activity

City Distance Mag. Time & Date
Minimum magnitude displayed is 2.5.

Coastal Water Temperatures

Place Temperature

Nearby Weather Stations